Time;durP1;ratioP1;P1;durP2;ratioP2;P2;SDS_P1;SDS_P2;PMS_P1;PMS_P2;Temp;Humidity;BMP_temperature;BMP_pressure;BME280_temperature;BME280_humidity;BME280_pressure;Samples;Min_cycle;Max_cycle;Signal;HPM_P1;HPM_P2
2024/01/12 00:00:25;;;;;;;5.70;3.88;;;;;;;11.11;45.64;96513.16;6154664;23;20033;-27
2024/01/12 00:16:21;;;;;;;8.05;4.25;;;;;;;11.13;45.46;96515.41;6155449;23;20069;-27
2024/01/12 00:45:41;;;;;;;7.13;4.05;;;;;;;10.80;45.80;96509.28;6155518;23;20359;-27
2024/01/12 01:01:56;;;;;;;5.93;3.88;;;;;;;10.80;46.05;96518.19;6153997;23;20037;-27
2024/01/12 01:31:15;;;;;;;7.45;4.10;;;;;;;10.62;46.05;96523.28;6154890;23;20013;-27
2024/01/12 01:47:07;;;;;;;6.70;4.15;;;;;;;10.65;45.54;96510.81;6154982;23;20194;-27
2024/01/12 02:03:01;;;;;;;5.00;3.40;;;;;;;10.69;45.36;96508.78;6153965;23;20069;-27
2024/01/12 02:16:17;;;;;;;5.43;3.45;;;;;;;10.60;45.30;96497.78;6157245;23;20063;-27
2024/01/12 02:32:09;;;;;;;5.85;3.50;;;;;;;10.66;45.01;96493.34;6156342;23;20324;-27
2024/01/12 02:48:01;;;;;;;8.75;4.05;;;;;;;10.55;45.03;96496.31;6156465;23;20323;-28
2024/01/12 02:50:26;;;;;;;5.95;3.50;;;;;;;10.61;44.74;96502.00;6156556;23;20072;-27
2024/01/12 03:02:56;;;;;;;4.97;3.22;;;;;;;10.37;44.89;96483.19;6155054;23;20467;-27
2024/01/12 03:18:49;;;;;;;6.05;3.72;;;;;;;10.71;44.16;96495.56;6156239;23;20068;-27
2024/01/12 03:32:03;;;;;;;8.00;3.67;;;;;;;10.45;44.52;96494.63;6155934;23;20107;-27
2024/01/12 03:34:29;;;;;;;4.82;3.25;;;;;;;10.34;44.40;96484.03;6156017;23;20471;-27
2024/01/12 03:36:54;;;;;;;5.38;3.15;;;;;;;10.49;44.43;96497.25;6156588;23;20025;-27
2024/01/12 03:49:25;;;;;;;7.05;3.63;;;;;;;10.59;43.87;96490.81;6155568;23;20021;-27
2024/01/12 04:02:46;;;;;;;7.30;3.45;;;;;;;10.46;43.92;96489.97;6155255;23;20387;-27
2024/01/12 04:05:11;;;;;;;6.47;3.60;;;;;;;10.40;44.12;96493.19;6126403;23;20015;-27
2024/01/12 04:17:43;;;;;;;5.47;3.08;;;;;;;10.53;43.31;96481.66;6126270;23;20071;-27
2024/01/12 04:33:35;;;;;;;5.75;3.17;;;;;;;10.53;43.11;96485.13;6126029;23;20017;-27
2024/01/12 04:49:27;;;;;;;5.15;2.83;;;;;;;10.57;42.79;96479.63;6125662;23;20089;-27
2024/01/12 05:20:08;;;;;;;4.32;2.45;;;;;;;10.24;43.27;96493.19;6156025;23;20024;-28
2024/01/12 05:33:28;;;;;;;3.67;2.20;;;;;;;10.19;42.88;96495.63;6155150;23;20020;-27
2024/01/12 05:49:21;;;;;;;4.65;3.30;;;;;;;10.30;42.45;96491.47;6156703;23;20016;-28
2024/01/12 06:05:13;;;;;;;3.15;2.33;;;;;;;10.42;42.28;96504.38;6155685;23;20075;-27
2024/01/12 06:21:18;;;;;;;3.88;2.30;;;;;;;10.31;41.79;96516.63;6156786;23;20024;-27
2024/01/12 06:34:13;;;;;;;3.38;2.15;;;;;;;10.22;41.55;96541.63;6157006;23;20020;-27
2024/01/12 06:36:45;;;;;;;4.38;2.47;;;;;;;10.20;41.34;96548.66;6156542;23;20009;-27
2024/01/12 06:49:22;;;;;;;5.55;2.50;;;;;;;10.41;41.05;96556.28;6156689;23;20320;-27
2024/01/12 07:05:15;;;;;;;7.78;6.15;;;;;;;10.40;40.40;96569.09;6155027;23;20029;-27
2024/01/12 07:21:07;;;;;;;5.55;2.13;;;;;;;10.39;40.07;96572.97;6155848;23;20016;-27
2024/01/12 07:51:17;;;;;;;3.92;2.22;;;;;;;10.39;40.29;96574.94;6156025;23;20096;-27
2024/01/12 08:07:10;;;;;;;4.50;2.72;;;;;;;10.40;40.75;96598.16;6154644;23;20105;-27
2024/01/12 08:20:30;;;;;;;3.90;2.67;;;;;;;10.49;40.58;96613.84;6155726;23;20148;-27
2024/01/12 08:36:22;;;;;;;5.15;2.75;;;;;;;10.68;40.43;96626.59;6155111;23;20020;-27
2024/01/12 08:52:15;;;;;;;6.07;3.10;;;;;;;10.81;40.38;96649.16;6155315;23;20015;-27
2024/01/12 09:21:59;;;;;;;6.88;3.15;;;;;;;21.11;23.59;96674.59;6154937;23;20152;-27
2024/01/12 09:37:53;;;;;;;6.20;4.32;;;;;;;25.33;18.26;96691.53;6155105;23;20076;-28
2024/01/12 10:07:12;;;;;;;8.15;5.07;;;;;;;15.06;32.92;96678.22;6153729;23;20056;-28
2024/01/12 10:23:31;;;;;;;6.53;3.97;;;;;;;13.03;37.36;96629.97;6155003;23;20017;-27
2024/01/12 10:37:02;;;;;;;12.07;3.83;;;;;;;12.48;38.57;96629.34;6156429;23;20451;-28
2024/01/12 10:53:09;;;;;;;7.20;4.30;;;;;;;12.21;39.41;96639.84;6156435;23;20060;-27
2024/01/12 11:09:01;;;;;;;7.88;4.50;;;;;;;11.92;41.10;96626.25;6154882;23;20407;-27
2024/01/12 11:11:35;;;;;;;9.13;5.03;;;;;;;11.99;40.96;96625.31;6156716;23;20022;-27
2024/01/12 11:24:06;;;;;;;8.65;5.45;;;;;;;11.96;41.07;96620.72;6155970;23;20063;-27
2024/01/12 11:53:25;;;;;;;12.50;6.85;;;;;;;11.83;43.18;96645.16;6155749;23;20459;-28
2024/01/12 11:55:50;;;;;;;12.27;6.28;;;;;;;11.84;42.82;96625.69;6155883;23;20002;-27
2024/01/12 12:08:21;;;;;;;7.32;4.75;;;;;;;12.11;42.95;96619.91;6154346;23;20091;-27
2024/01/12 12:24:13;;;;;;;11.25;6.13;;;;;;;12.05;42.44;96604.53;6155385;23;20392;-27
2024/01/12 12:26:41;;;;;;;9.95;5.90;;;;;;;12.07;41.33;96596.72;6129663;23;20092;-27
2024/01/12 12:39:11;;;;;;;13.73;7.07;;;;;;;11.77;42.39;96592.50;6155085;23;20016;-28
2024/01/12 12:55:04;;;;;;;8.18;4.20;;;;;;;11.85;42.43;96596.56;6155383;23;20020;-27
2024/01/12 13:24:49;;;;;;;5.03;2.50;;;;;;;12.04;41.57;96594.88;6155302;23;20217;-28
2024/01/12 13:40:42;;;;;;;13.45;7.30;;;;;;;12.05;42.39;96585.53;6155144;23;20028;-28
2024/01/12 13:56:34;;;;;;;8.68;4.30;;;;;;;12.26;41.92;96606.66;6154645;23;20104;-28
2024/01/12 14:09:33;;;;;;;7.32;3.55;;;;;;;11.96;42.63;96609.84;6156240;23;20346;-27
2024/01/12 14:25:25;;;;;;;7.72;4.28;;;;;;;12.15;42.36;96619.78;6127250;23;20114;-27
2024/01/12 14:41:18;;;;;;;5.82;3.05;;;;;;;11.92;42.88;96634.41;6126698;23;20483;-27
2024/01/12 14:55:04;;;;;;;16.92;7.55;;;;;;;11.96;42.27;96653.34;6127159;23;20044;-27
2024/01/12 14:57:30;;;;;;;20.23;9.32;;;;;;;12.11;42.48;96657.22;6123244;23;20010;-27
2024/01/12 15:10:13;;;;;;;44.08;19.35;;;;;;;12.03;42.47;96658.56;6131288;23;20028;-27
2024/01/12 15:26:09;;;;;;;10.43;5.10;;;;;;;11.94;39.61;96626.59;6126562;23;20064;-27
2024/01/12 15:42:01;;;;;;;5.65;3.47;;;;;;;11.88;39.60;96633.72;6126585;23;20375;-27
2024/01/12 16:11:20;;;;;;;12.35;4.95;;;;;;;11.67;40.95;96686.66;6139102;23;20084;-27
2024/01/12 16:27:16;;;;;;;16.90;8.32;;;;;;;11.63;41.15;96717.81;6155202;23;20442;-28
2024/01/12 16:29:41;;;;;;;13.38;8.50;;;;;;;11.76;40.81;96721.41;6155915;23;20011;-27
2024/01/12 16:42:12;;;;;;;14.85;10.30;;;;;;;11.60;41.08;96724.13;6155403;23;20012;-27
2024/01/12 16:58:04;;;;;;;10.50;5.82;;;;;;;11.61;40.40;96725.66;6155492;23;20088;-27
2024/01/12 17:28:45;;;;;;;9.00;7.00;;;;;;;11.66;41.03;96771.31;6125814;23;20017;-27
2024/01/12 17:41:49;;;;;;;6.68;3.70;;;;;;;11.54;41.58;96780.88;6127755;23;20064;-27
2024/01/12 17:57:43;;;;;;;11.93;5.18;;;;;;;11.59;41.53;96793.97;6127185;23;20145;-27
2024/01/12 18:13:36;;;;;;;23.48;11.88;;;;;;;11.63;41.44;96810.94;6152497;23;20029;-27
2024/01/12 18:16:02;;;;;;;17.38;8.25;;;;;;;11.66;41.49;96814.75;6157204;23;20005;-27
2024/01/12 18:28:34;;;;;;;14.20;10.80;;;;;;;11.52;41.80;96816.63;6157010;23;20024;-27
2024/01/12 18:44:26;;;;;;;15.02;7.30;;;;;;;11.40;41.88;96830.84;6156204;23;20352;-27
2024/01/12 18:57:40;;;;;;;14.80;6.63;;;;;;;11.43;41.70;96830.03;6156781;23;20016;-27
2024/01/12 19:13:33;;;;;;;17.85;12.80;;;;;;;11.16;42.05;96834.88;6155192;23;20484;-27
2024/01/12 19:29:26;;;;;;;11.27;6.50;;;;;;;11.29;41.50;96840.44;6156136;23;20536;-27
2024/01/12 19:45:18;;;;;;;240.98;104.65;;;;;;;11.05;41.45;96847.91;6155758;23;20020;-27
2024/01/12 19:58:20;;;;;;;12.20;7.18;;;;;;;11.08;41.29;96860.66;6155827;23;20067;-27
2024/01/12 20:14:12;;;;;;;10.60;5.65;;;;;;;11.12;41.28;96886.53;6154618;23;20470;-27
2024/01/12 20:16:38;;;;;;;5.47;3.13;;;;;;;11.13;41.30;96888.06;6155741;23;20013;-27
2024/01/12 20:29:08;;;;;;;9.25;4.65;;;;;;;10.98;41.51;96913.19;6155215;23;20013;-27
2024/01/12 20:45:02;;;;;;;24.58;12.68;;;;;;;10.89;41.55;96921.88;6155450;23;20399;-27
2024/01/12 20:47:27;;;;;;;17.88;9.00;;;;;;;10.98;41.64;96908.53;6129512;23;20359;-27
2024/01/12 20:49:53;;;;;;;11.43;5.78;;;;;;;10.92;41.42;96915.59;6155736;23;20002;-27
2024/01/12 20:59:02;;;;;;;19.85;15.82;;;;;;;10.88;41.64;96925.75;6155788;23;20438;-28
2024/01/12 21:01:27;;;;;;;11.68;10.00;;;;;;;10.95;41.38;96922.16;6155378;23;20001;-27
2024/01/12 21:03:52;;;;;;;10.30;6.45;;;;;;;10.87;41.19;96918.81;6155312;23;20320;-27
2024/01/12 21:30:15;;;;;;;7.28;3.10;;;;;;;10.87;40.71;96950.63;6154881;23;20015;-27
2024/01/12 21:46:07;;;;;;;7.43;2.20;;;;;;;10.60;41.15;96945.25;6155000;23;20351;-27
2024/01/12 22:15:26;;;;;;;7.60;2.60;;;;;;;10.57;41.11;96937.94;6153972;23;20384;-27
2024/01/12 22:31:19;;;;;;;14.95;5.50;;;;;;;10.83;41.08;96941.75;6156318;23;20035;-27
2024/01/12 22:47:11;;;;;;;7.60;2.47;;;;;;;10.77;40.92;96941.47;6156810;23;20016;-27
2024/01/12 23:00:25;;;;;;;3.97;1.67;;;;;;;10.47;41.49;96941.63;6156697;23;20036;-27
2024/01/12 23:17:07;;;;;;;9.68;3.00;;;;;;;10.58;41.30;96915.06;6154207;23;20028;-27
2024/01/12 23:33:25;;;;;;;11.13;5.15;;;;;;;10.46;41.60;96921.09;6126888;23;20026;-27
2024/01/12 23:49:17;;;;;;;6.05;1.75;;;;;;;10.53;41.50;96872.16;6126549;23;20111;-28
